createdAt,value
2023-02-07T00:01:27.562Z,1.40
2023-02-07T00:03:56.490Z,1.40
2023-02-07T00:06:30.046Z,1.40
2023-02-07T00:08:59.682Z,1.40
2023-02-07T00:11:26.890Z,1.40
2023-02-07T00:13:57.705Z,1.40
2023-02-07T00:16:27.752Z,1.40
2023-02-07T00:18:58.375Z,1.40
2023-02-07T00:21:27.808Z,1.40
2023-02-07T00:23:55.166Z,1.40
2023-02-07T00:26:24.754Z,1.30
2023-02-07T00:28:53.799Z,1.30
2023-02-07T00:31:28.507Z,1.40
2023-02-07T00:34:00.391Z,1.40
2023-02-07T00:36:30.635Z,1.30
2023-02-07T00:39:00.409Z,1.30
2023-02-07T00:41:28.740Z,1.30
2023-02-07T00:43:55.980Z,1.30
2023-02-07T00:46:24.519Z,1.30
2023-02-07T00:48:53.243Z,1.20
2023-02-07T00:51:20.340Z,1.30
2023-02-07T00:53:48.447Z,1.20
2023-02-07T00:56:15.560Z,1.10
2023-02-07T00:58:42.432Z,1.10
2023-02-07T01:01:09.506Z,1.10
2023-02-07T01:03:36.482Z,1.10
2023-02-07T01:06:03.770Z,1.20
2023-02-07T01:08:30.813Z,1.20
2023-02-07T01:11:01.548Z,1.20
2023-02-07T01:13:28.406Z,1.20
2023-02-07T01:15:55.303Z,1.10
2023-02-07T01:18:22.109Z,1.10
2023-02-07T01:20:48.984Z,1.10
2023-02-07T01:23:15.907Z,1.10
2023-02-07T01:25:44.742Z,1.10
2023-02-07T01:28:14.218Z,1.00
2023-02-07T01:30:43.577Z,1.00
2023-02-07T01:33:11.312Z,1.00
2023-02-07T01:35:39.540Z,0.90
2023-02-07T01:38:07.831Z,1.00
2023-02-07T01:40:38.147Z,1.10
2023-02-07T01:43:06.538Z,1.00
2023-02-07T01:45:40.671Z,1.00
2023-02-07T01:48:16.883Z,1.00
2023-02-07T01:50:49.067Z,1.00
2023-02-07T01:53:20.773Z,1.00
2023-02-07T01:55:51.759Z,0.90
2023-02-07T01:58:18.931Z,0.90
2023-02-07T02:00:47.019Z,0.80
2023-02-07T02:03:14.106Z,0.80
2023-02-07T02:05:44.112Z,0.80
2023-02-07T02:08:11.062Z,0.80
2023-02-07T02:11:11.605Z,0.80
2023-02-07T02:13:51.575Z,0.80
2023-02-07T02:16:45.281Z,0.80
2023-02-07T02:19:43.554Z,0.80
2023-02-07T02:22:35.247Z,0.90
2023-02-07T02:25:19.819Z,0.80
2023-02-07T02:28:08.004Z,0.70
2023-02-07T02:31:09.043Z,0.80
2023-02-07T02:34:07.090Z,0.70
2023-02-07T02:36:37.109Z,0.60
2023-02-07T02:39:42.641Z,0.50
2023-02-07T02:42:34.257Z,0.60
2023-02-07T02:45:12.145Z,0.70
2023-02-07T02:47:44.926Z,0.70
2023-02-07T02:50:25.678Z,0.70
2023-02-07T02:52:52.697Z,0.50
2023-02-07T02:55:49.815Z,0.50
2023-02-07T02:58:49.653Z,0.60
2023-02-07T03:01:44.496Z,0.60
2023-02-07T03:04:27.436Z,0.60
2023-02-07T03:07:04.819Z,0.50
2023-02-07T03:09:57.130Z,0.50
2023-02-07T03:13:00.362Z,0.50
2023-02-07T03:15:48.719Z,0.50
2023-02-07T03:18:39.807Z,0.40
2023-02-07T03:21:25.680Z,0.30
2023-02-07T03:23:59.094Z,0.40
2023-02-07T03:26:29.892Z,0.40
2023-02-07T03:28:59.996Z,0.40
2023-02-07T03:31:29.979Z,0.50
2023-02-07T03:34:09.428Z,0.50
2023-02-07T03:36:48.870Z,0.40
2023-02-07T03:39:15.836Z,0.30
2023-02-07T03:41:51.735Z,0.30
2023-02-07T03:44:23.849Z,0.30
2023-02-07T03:46:51.685Z,0.30
2023-02-07T03:49:18.570Z,0.30
2023-02-07T03:51:46.112Z,0.30
2023-02-07T03:54:13.873Z,0.30
2023-02-07T03:56:40.633Z,0.20
2023-02-07T03:59:08.291Z,0.20
2023-02-07T04:01:40.713Z,0.20
2023-02-07T04:04:09.414Z,0.20
2023-02-07T04:06:36.444Z,0.10
2023-02-07T04:09:03.751Z,0.10
2023-02-07T04:11:30.666Z,0.20
2023-02-07T04:13:57.473Z,0.20
2023-02-07T04:16:25.716Z,0.20
2023-02-07T04:18:52.579Z,0.10
2023-02-07T04:21:19.605Z,0.10
2023-02-07T04:23:46.452Z,0.10
2023-02-07T04:26:13.734Z,0.00
2023-02-07T04:28:40.557Z,0.10
2023-02-07T04:31:07.499Z,0.10
2023-02-07T04:33:34.905Z,0.10
2023-02-07T04:36:03.778Z,0.10
2023-02-07T04:38:30.882Z,0.10
2023-02-07T04:41:04.294Z,0.00
2023-02-07T04:43:33.694Z,0.00
2023-02-07T04:46:02.366Z,0.00
2023-02-07T04:48:29.525Z,0.10
2023-02-07T04:50:56.576Z,0.00
2023-02-07T04:53:23.677Z,0.10
2023-02-07T04:55:53.722Z,0.10
2023-02-07T04:58:22.455Z,0.00
2023-02-07T05:00:49.844Z,-0.10
2023-02-07T05:03:16.733Z,0.00
2023-02-07T05:05:45.077Z,0.10
2023-02-07T05:08:12.971Z,0.10
2023-02-07T05:10:41.201Z,0.10
2023-02-07T05:13:08.171Z,0.10
2023-02-07T05:15:35.171Z,0.00
2023-02-07T05:18:02.210Z,0.20
2023-02-07T05:20:29.322Z,0.20
2023-02-07T05:22:56.370Z,0.20
2023-02-07T05:25:23.270Z,0.20
2023-02-07T05:27:50.358Z,0.10
2023-02-07T05:30:17.680Z,0.20
2023-02-07T05:33:03.084Z,0.10
2023-02-07T05:35:42.985Z,0.10
2023-02-07T05:38:13.356Z,0.10
2023-02-07T05:40:42.337Z,0.10
2023-02-07T05:43:10.872Z,0.10
2023-02-07T05:45:39.952Z,0.10
2023-02-07T05:48:07.373Z,0.20
2023-02-07T05:50:34.685Z,0.20
2023-02-07T05:53:10.881Z,0.10
2023-02-07T05:55:38.138Z,0.20
2023-02-07T05:58:05.349Z,0.30
2023-02-07T06:00:32.476Z,0.30
2023-02-07T06:02:59.459Z,0.30
2023-02-07T06:05:31.358Z,0.30
2023-02-07T06:07:58.284Z,0.30
2023-02-07T06:10:25.318Z,0.20
2023-02-07T06:12:52.315Z,0.30
2023-02-07T06:15:19.229Z,0.30
2023-02-07T06:17:46.794Z,0.20
2023-02-07T06:20:13.606Z,0.30
2023-02-07T06:22:40.510Z,0.20
2023-02-07T06:25:11.607Z,0.20
2023-02-07T06:27:41.177Z,0.10
2023-02-07T06:30:10.729Z,0.20
2023-02-07T06:32:37.649Z,0.20
2023-02-07T06:35:06.692Z,0.20
2023-02-07T06:37:34.022Z,0.10
2023-02-07T06:40:00.837Z,0.00
2023-02-07T06:42:27.584Z,0.10
2023-02-07T06:44:54.333Z,0.00
2023-02-07T06:47:21.149Z,0.00
2023-02-07T06:49:48.303Z,0.10
2023-02-07T06:52:15.221Z,0.00
2023-02-07T06:54:42.362Z,0.10
2023-02-07T06:57:09.213Z,0.10
2023-02-07T06:59:36.430Z,0.00
2023-02-07T07:02:03.972Z,0.00
2023-02-07T07:04:31.596Z,0.10
2023-02-07T07:06:58.634Z,0.10
2023-02-07T07:09:26.452Z,0.10
2023-02-07T07:11:53.394Z,0.10
2023-02-07T07:14:20.430Z,0.10
2023-02-07T07:16:47.305Z,0.10
2023-02-07T07:19:14.196Z,0.00
2023-02-07T07:21:41.093Z,0.00
2023-02-07T07:24:08.335Z,0.00
2023-02-07T07:26:48.350Z,0.00
2023-02-07T07:29:16.184Z,0.10
2023-02-07T07:31:43.148Z,0.10
2023-02-07T07:34:11.076Z,0.00
2023-02-07T07:36:37.917Z,0.00
2023-02-07T07:39:05.419Z,0.00
2023-02-07T07:41:32.252Z,0.10
2023-02-07T07:43:59.048Z,0.10
2023-02-07T07:46:25.947Z,0.00
2023-02-07T07:48:52.782Z,0.00
2023-02-07T07:51:19.684Z,0.10
2023-02-07T07:53:46.666Z,0.00
2023-02-07T07:56:13.488Z,0.00
2023-02-07T07:58:40.268Z,0.00
2023-02-07T08:01:07.085Z,0.10
2023-02-07T08:03:34.768Z,0.10
2023-02-07T08:06:01.525Z,0.10
2023-02-07T08:08:28.295Z,0.20
2023-02-07T08:10:55.210Z,0.20
2023-02-07T08:13:22.622Z,0.20
2023-02-07T08:15:49.553Z,0.20
2023-02-07T08:18:16.368Z,0.20
2023-02-07T08:20:43.125Z,0.20
2023-02-07T08:23:10.011Z,0.30
2023-02-07T08:25:36.757Z,0.30
2023-02-07T08:28:04.793Z,0.30
2023-02-07T08:30:32.125Z,0.40
2023-02-07T08:32:59.046Z,0.40
2023-02-07T08:35:27.225Z,0.50
2023-02-07T08:37:58.329Z,0.50
2023-02-07T08:40:26.940Z,0.50
2023-02-07T08:42:53.899Z,0.60
2023-02-07T08:45:20.758Z,0.70
2023-02-07T08:47:47.521Z,0.90
2023-02-07T08:50:15.809Z,0.90
2023-02-07T08:52:43.180Z,1.20
2023-02-07T08:55:10.816Z,1.20
2023-02-07T08:57:38.464Z,1.30
2023-02-07T09:00:07.510Z,1.50
2023-02-07T09:02:35.085Z,1.40
2023-02-07T09:05:02.433Z,1.50
2023-02-07T09:07:29.193Z,1.60
2023-02-07T09:09:56.056Z,1.70
2023-02-07T09:12:23.060Z,1.70
2023-02-07T09:14:49.834Z,2.00
2023-02-07T09:17:16.726Z,2.10
2023-02-07T09:19:43.586Z,2.10
2023-02-07T09:22:10.569Z,2.30
2023-02-07T09:24:37.538Z,2.40
2023-02-07T09:27:04.373Z,2.50
2023-02-07T09:29:31.135Z,2.60
2023-02-07T09:31:58.117Z,2.30
2023-02-07T09:34:25.574Z,2.30
2023-02-07T09:36:52.366Z,2.30
2023-02-07T09:39:20.325Z,2.60
2023-02-07T09:42:17.647Z,2.90
2023-02-07T09:45:08.076Z,3.20
2023-02-07T09:47:41.415Z,3.30
2023-02-07T09:50:28.617Z,3.50
2023-02-07T09:53:04.639Z,3.50
2023-02-07T09:55:50.503Z,3.40
2023-02-07T09:58:23.184Z,3.80
2023-02-07T10:01:06.663Z,3.80
2023-02-07T10:03:46.249Z,4.00
2023-02-07T10:06:23.312Z,4.10
2023-02-07T10:08:55.397Z,4.10
2023-02-07T10:12:12.869Z,4.00
2023-02-07T10:14:51.525Z,3.70
2023-02-07T10:17:48.998Z,4.20
2023-02-07T10:20:46.985Z,4.20
2023-02-07T10:23:45.577Z,4.60
2023-02-07T10:26:27.318Z,4.60
2023-02-07T10:29:24.766Z,4.70
2023-02-07T10:31:55.751Z,4.90
2023-02-07T10:34:30.666Z,4.80
2023-02-07T10:36:58.639Z,4.80
2023-02-07T10:39:47.158Z,4.70
2023-02-07T10:42:18.130Z,4.70
2023-02-07T10:44:44.996Z,4.80
2023-02-07T10:47:18.906Z,4.80
2023-02-07T10:49:51.436Z,4.70
2023-02-07T10:52:29.273Z,5.00
2023-02-07T10:55:04.288Z,5.00
2023-02-07T10:57:32.361Z,4.80
2023-02-07T11:00:27.102Z,4.60
2023-02-07T11:03:00.793Z,4.60
2023-02-07T11:05:35.132Z,4.40
2023-02-07T11:08:14.759Z,4.60
2023-02-07T11:10:44.808Z,4.60
2023-02-07T11:13:27.342Z,4.60
2023-02-07T11:16:08.470Z,4.60
2023-02-07T11:18:59.874Z,5.20
2023-02-07T11:21:35.095Z,5.00
2023-02-07T11:24:31.101Z,5.20
2023-02-07T11:27:21.931Z,4.70
2023-02-07T11:30:10.013Z,5.10
2023-02-07T11:32:38.369Z,5.20
2023-02-07T11:35:19.307Z,5.20
2023-02-07T11:38:00.384Z,5.40
2023-02-07T11:40:36.615Z,5.40
2023-02-07T11:43:09.771Z,5.30
2023-02-07T11:45:44.946Z,5.20
2023-02-07T11:48:34.983Z,5.10
2023-02-07T11:51:06.298Z,5.70
2023-02-07T11:53:49.729Z,5.70
2023-02-07T11:56:48.340Z,5.50
2023-02-07T11:59:22.734Z,5.40
2023-02-07T12:01:54.204Z,5.30
2023-02-07T12:04:28.978Z,5.50
2023-02-07T12:07:12.102Z,5.50
2023-02-07T12:09:55.786Z,5.50
2023-02-07T12:12:48.164Z,5.50
2023-02-07T12:15:54.626Z,5.50
2023-02-07T12:18:59.170Z,5.20
2023-02-07T12:21:37.283Z,5.20
2023-02-07T12:24:20.885Z,5.40
2023-02-07T12:27:10.200Z,5.40
2023-02-07T12:30:17.838Z,5.50
2023-02-07T12:33:03.560Z,5.40
2023-02-07T12:36:04.006Z,5.20
2023-02-07T12:38:46.869Z,5.30
2023-02-07T12:41:24.379Z,5.20
2023-02-07T12:44:06.190Z,5.20
2023-02-07T12:46:53.431Z,5.30
2023-02-07T12:50:18.658Z,5.40
2023-02-07T12:53:07.367Z,5.30
2023-02-07T12:56:09.679Z,5.40
2023-02-07T12:59:06.647Z,5.40
2023-02-07T13:02:24.508Z,5.50
2023-02-07T13:05:31.934Z,5.50
2023-02-07T13:08:28.626Z,5.60
2023-02-07T13:11:34.205Z,5.80
2023-02-07T13:14:50.136Z,5.80
2023-02-07T13:17:47.457Z,5.90
2023-02-07T13:20:52.126Z,5.70
2023-02-07T13:23:26.269Z,5.70
2023-02-07T13:26:00.401Z,5.70
2023-02-07T13:28:56.147Z,5.90
2023-02-07T13:31:39.587Z,5.90
2023-02-07T13:34:16.862Z,5.90
2023-02-07T13:36:52.609Z,5.90
2023-02-07T13:39:48.357Z,6.10
2023-02-07T13:42:33.060Z,6.20
2023-02-07T13:45:16.609Z,6.00
2023-02-07T13:48:01.299Z,6.10
2023-02-07T13:51:03.027Z,6.10
2023-02-07T13:53:50.445Z,6.20
2023-02-07T13:56:35.831Z,6.20
2023-02-07T13:59:21.769Z,6.40
2023-02-07T14:01:59.206Z,6.30
2023-02-07T14:04:49.945Z,6.20
2023-02-07T14:07:31.222Z,6.20
2023-02-07T14:09:59.078Z,6.40
2023-02-07T14:12:31.029Z,6.40
2023-02-07T14:15:34.949Z,6.20
2023-02-07T14:18:06.231Z,5.90
2023-02-07T14:21:20.829Z,6.00
2023-02-07T14:24:18.435Z,6.00
2023-02-07T14:26:47.974Z,6.10
2023-02-07T14:29:20.747Z,6.20
2023-02-07T14:32:02.289Z,6.30
2023-02-07T14:34:59.162Z,6.30
2023-02-07T14:37:47.029Z,6.30
2023-02-07T14:40:47.886Z,6.20
2023-02-07T14:43:15.037Z,6.10
2023-02-07T14:46:07.277Z,6.10
2023-02-07T14:49:02.309Z,6.00
2023-02-07T14:51:29.079Z,6.00
2023-02-07T14:54:36.116Z,6.10
2023-02-07T14:57:33.484Z,6.10
2023-02-07T15:00:12.868Z,6.00
2023-02-07T15:02:49.799Z,6.10
2023-02-07T15:05:21.458Z,6.20
2023-02-07T15:07:56.063Z,6.30
2023-02-07T15:10:33.521Z,6.30
2023-02-07T15:13:03.890Z,6.20
2023-02-07T15:15:47.518Z,6.20
2023-02-07T15:18:18.530Z,6.10
2023-02-07T15:20:56.847Z,6.20
2023-02-07T15:23:29.062Z,6.30
2023-02-07T15:25:56.984Z,6.20
2023-02-07T15:28:27.642Z,6.20
2023-02-07T15:31:13.479Z,6.30
2023-02-07T15:33:54.717Z,6.20
2023-02-07T15:36:41.687Z,6.10
2023-02-07T15:39:17.643Z,6.20
2023-02-07T15:41:47.655Z,6.20
2023-02-07T15:44:30.726Z,6.10
2023-02-07T15:47:02.012Z,6.20
2023-02-07T15:49:34.830Z,6.10
2023-02-07T15:52:41.364Z,6.10
2023-02-07T15:55:43.731Z,6.10
2023-02-07T15:58:26.625Z,6.00
2023-02-07T16:00:58.712Z,5.70
2023-02-07T16:03:36.422Z,5.70
2023-02-07T16:06:22.981Z,5.70
2023-02-07T16:08:54.054Z,5.70
2023-02-07T16:11:37.728Z,5.60
2023-02-07T16:14:24.960Z,5.50
2023-02-07T16:16:58.372Z,5.50
2023-02-07T16:19:30.794Z,5.40
2023-02-07T16:22:14.595Z,5.30
2023-02-07T16:24:46.637Z,5.30
2023-02-07T16:27:21.168Z,5.30
2023-02-07T16:29:48.541Z,5.20
2023-02-07T16:32:16.834Z,5.10
2023-02-07T16:34:58.937Z,5.00
2023-02-07T16:37:28.772Z,5.00
2023-02-07T16:39:55.578Z,5.00
2023-02-07T16:42:22.592Z,4.90
2023-02-07T16:44:49.572Z,4.70
2023-02-07T16:47:18.416Z,4.60
2023-02-07T16:49:46.295Z,4.40
2023-02-07T16:52:13.138Z,4.40
2023-02-07T16:54:40.029Z,4.40
2023-02-07T16:57:07.228Z,4.30
2023-02-07T16:59:34.112Z,4.20
2023-02-07T17:02:01.126Z,4.00
2023-02-07T17:04:28.012Z,4.00
2023-02-07T17:06:54.895Z,3.90
2023-02-07T17:09:24.943Z,3.80
2023-02-07T17:11:55.384Z,3.70
2023-02-07T17:14:22.653Z,3.70
2023-02-07T17:16:49.524Z,3.60
2023-02-07T17:19:22.950Z,3.60
2023-02-07T17:21:51.367Z,3.50
2023-02-07T17:24:18.969Z,3.30
2023-02-07T17:26:50.473Z,3.20
2023-02-07T17:29:19.106Z,3.10
2023-02-07T17:31:46.733Z,3.00
2023-02-07T17:34:13.908Z,3.00
2023-02-07T17:36:46.644Z,2.90
2023-02-07T17:39:15.338Z,2.80
2023-02-07T17:41:42.274Z,2.70
2023-02-07T17:44:09.421Z,2.70
2023-02-07T17:46:36.483Z,2.50
2023-02-07T17:49:03.761Z,2.50
2023-02-07T17:51:30.775Z,2.40
2023-02-07T17:53:57.826Z,2.40
2023-02-07T17:56:27.032Z,2.30
2023-02-07T17:58:56.419Z,2.20
2023-02-07T18:01:23.946Z,2.20
2023-02-07T18:03:53.961Z,2.20
2023-02-07T18:06:26.754Z,2.10
2023-02-07T18:08:57.169Z,2.10
2023-02-07T18:11:26.331Z,2.10
2023-02-07T18:13:53.315Z,2.10
2023-02-07T18:16:24.619Z,2.00
2023-02-07T18:18:54.677Z,2.00
2023-02-07T18:21:21.799Z,1.90
2023-02-07T18:23:49.010Z,1.90
2023-02-07T18:26:16.683Z,1.80
2023-02-07T18:28:44.287Z,1.80
2023-02-07T18:31:19.903Z,1.70
2023-02-07T18:33:47.906Z,1.60
2023-02-07T18:36:16.592Z,1.70
2023-02-07T18:38:44.286Z,1.60
2023-02-07T18:41:15.469Z,1.50
2023-02-07T18:43:42.847Z,1.50
2023-02-07T18:46:17.235Z,1.50
2023-02-07T18:48:45.285Z,1.40
2023-02-07T18:51:16.714Z,1.30
2023-02-07T18:53:43.979Z,1.30
2023-02-07T18:56:17.754Z,1.30
2023-02-07T18:58:46.718Z,1.30
2023-02-07T19:01:18.991Z,1.30
2023-02-07T19:03:54.297Z,1.20
2023-02-07T19:06:24.249Z,1.20
2023-02-07T19:08:51.316Z,1.20
2023-02-07T19:11:19.291Z,1.10
2023-02-07T19:13:46.962Z,1.10
2023-02-07T19:16:18.730Z,1.10
2023-02-07T19:18:46.563Z,1.10
2023-02-07T19:21:18.192Z,1.10
2023-02-07T19:23:45.199Z,1.10
2023-02-07T19:26:12.275Z,1.10
2023-02-07T19:28:39.307Z,1.10
2023-02-07T19:31:09.787Z,1.00
2023-02-07T19:33:36.867Z,1.00
2023-02-07T19:36:10.245Z,1.00
2023-02-07T19:38:37.572Z,0.90
2023-02-07T19:41:06.330Z,0.90
2023-02-07T19:43:34.512Z,0.90
2023-02-07T19:46:01.657Z,0.90
2023-02-07T19:48:28.973Z,1.00
2023-02-07T19:51:02.318Z,1.00
2023-02-07T19:53:30.236Z,1.00
2023-02-07T19:56:08.838Z,0.90
2023-02-07T19:58:37.970Z,0.90
2023-02-07T20:01:05.458Z,0.80
2023-02-07T20:03:32.375Z,0.80
2023-02-07T20:06:01.839Z,0.90
2023-02-07T20:08:33.856Z,0.90
2023-02-07T20:11:06.766Z,0.90
2023-02-07T20:13:36.068Z,0.90
2023-02-07T20:16:10.046Z,0.80
2023-02-07T20:18:36.842Z,0.70
2023-02-07T20:21:11.857Z,0.70
2023-02-07T20:23:41.884Z,0.70
2023-02-07T20:26:15.221Z,0.70
2023-02-07T20:28:43.216Z,0.70
2023-02-07T20:31:14.087Z,0.70
2023-02-07T20:33:42.410Z,0.80
2023-02-07T20:36:11.405Z,0.70
2023-02-07T20:38:38.493Z,0.60
2023-02-07T20:41:13.872Z,0.50
2023-02-07T20:43:42.764Z,0.60
2023-02-07T20:46:17.100Z,0.50
2023-02-07T20:48:44.050Z,0.50
2023-02-07T20:51:11.353Z,0.50
2023-02-07T20:53:40.914Z,0.50
2023-02-07T20:56:14.542Z,0.50
2023-02-07T20:58:41.342Z,0.40
2023-02-07T21:01:18.187Z,0.50
2023-02-07T21:03:46.779Z,0.40
2023-02-07T21:06:13.683Z,0.30
2023-02-07T21:08:40.975Z,0.30
2023-02-07T21:11:09.128Z,0.30
2023-02-07T21:13:37.222Z,0.30
2023-02-07T21:16:06.617Z,0.30
2023-02-07T21:18:34.951Z,0.30
2023-02-07T21:21:07.562Z,0.30
2023-02-07T21:23:35.717Z,0.30
2023-02-07T21:26:08.724Z,0.20
2023-02-07T21:28:36.975Z,0.20
2023-02-07T21:31:15.406Z,0.20
2023-02-07T21:33:42.277Z,0.10
2023-02-07T21:36:15.440Z,0.10
2023-02-07T21:38:47.011Z,0.10
2023-02-07T21:41:16.889Z,0.10
2023-02-07T21:43:43.705Z,0.10
2023-02-07T21:46:22.778Z,0.10
2023-02-07T21:48:53.079Z,0.10
2023-02-07T21:51:25.991Z,0.10
2023-02-07T21:53:55.178Z,0.00
2023-02-07T21:56:27.205Z,0.00
2023-02-07T21:59:01.342Z,0.00
2023-02-07T22:01:30.213Z,0.10
2023-02-07T22:04:01.304Z,0.10
2023-02-07T22:06:29.744Z,0.10
2023-02-07T22:08:59.747Z,0.00
2023-02-07T22:11:33.026Z,0.00
2023-02-07T22:14:01.257Z,0.00
2023-02-07T22:16:30.588Z,-0.10
2023-02-07T22:19:01.318Z,-0.10
2023-02-07T22:21:32.010Z,-0.10
2023-02-07T22:24:00.329Z,-0.10
2023-02-07T22:26:29.965Z,-0.10
2023-02-07T22:28:58.922Z,-0.10
2023-02-07T22:31:29.119Z,-0.20
2023-02-07T22:34:01.774Z,-0.20
2023-02-07T22:36:31.997Z,-0.30
2023-02-07T22:39:01.920Z,-0.30
2023-02-07T22:41:30.389Z,-0.20
2023-02-07T22:43:57.673Z,-0.20
2023-02-07T22:46:25.408Z,-0.30
2023-02-07T22:48:53.503Z,-0.30
2023-02-07T22:51:32.937Z,-0.30
2023-02-07T22:54:05.558Z,-0.30
2023-02-07T22:56:35.160Z,-0.20
2023-02-07T22:59:02.429Z,-0.30
2023-02-07T23:01:34.241Z,-0.30
2023-02-07T23:04:03.906Z,-0.30
2023-02-07T23:06:32.570Z,-0.30
2023-02-07T23:08:59.904Z,-0.40
2023-02-07T23:11:27.675Z,-0.40
2023-02-07T23:13:55.190Z,-0.40
2023-02-07T23:16:26.047Z,-0.40
2023-02-07T23:18:58.490Z,-0.50
2023-02-07T23:21:26.929Z,-0.50
2023-02-07T23:23:55.544Z,-0.50
2023-02-07T23:26:24.558Z,-0.50
2023-02-07T23:28:52.556Z,-0.40
2023-02-07T23:31:22.793Z,-0.40
2023-02-07T23:33:50.726Z,-0.50
2023-02-07T23:36:18.567Z,-0.60
2023-02-07T23:38:49.653Z,-0.60
2023-02-07T23:41:16.843Z,-0.60
2023-02-07T23:43:44.183Z,-0.50
2023-02-07T23:46:13.934Z,-0.50
2023-02-07T23:48:41.047Z,-0.60
2023-02-07T23:51:09.787Z,-0.60
2023-02-07T23:53:36.665Z,-0.70
2023-02-07T23:56:05.660Z,-0.70
2023-02-07T23:58:34.118Z,-0.60
